createdAt,value
2022-12-03T00:03:20.665Z,102699.94
2022-12-03T00:08:22.244Z,102706.69
2022-12-03T00:13:23.800Z,102690.59
2022-12-03T00:18:25.465Z,102686.22
2022-12-03T00:23:26.956Z,102691.56
2022-12-03T00:28:28.420Z,102684.56
2022-12-03T00:33:30.064Z,102676.69
2022-12-03T00:38:31.525Z,102686.81
2022-12-03T00:43:33.070Z,102676.38
2022-12-03T00:48:34.783Z,102689.09
2022-12-03T00:53:36.292Z,102677.84
2022-12-03T00:58:37.879Z,102677.06
2022-12-03T01:03:39.412Z,102671.72
2022-12-03T01:08:40.912Z,102683.94
2022-12-03T01:13:42.366Z,102673.59
2022-12-03T01:18:46.141Z,102670.94
2022-12-03T01:23:47.628Z,102667.53
2022-12-03T01:28:49.083Z,102673.63
2022-12-03T01:33:50.529Z,102672.06
2022-12-03T01:38:52.035Z,102671.25
2022-12-03T01:43:55.220Z,102666.09
2022-12-03T01:48:56.771Z,102673.03
2022-12-03T01:53:59.556Z,102660.63
2022-12-03T01:59:01.073Z,102672.06
2022-12-03T02:04:02.627Z,102666.97
2022-12-03T02:09:04.354Z,102671.28
2022-12-03T02:14:10.484Z,102669.47
2022-12-03T02:19:31.920Z,102679.06
2022-12-03T02:24:55.661Z,102669.56
2022-12-03T02:29:57.285Z,102666.84
2022-12-03T02:34:58.809Z,102665.97
2022-12-03T02:40:04.797Z,102662.31
2022-12-03T02:45:14.905Z,102664.81
2022-12-03T02:50:20.645Z,102659.53
2022-12-03T02:55:23.494Z,102668.28
2022-12-03T03:00:25.126Z,102656.94
2022-12-03T03:05:26.853Z,102663.75
2022-12-03T03:10:30.088Z,102666.41
2022-12-03T03:15:31.534Z,102650.88
2022-12-03T03:20:33.061Z,102654.47
2022-12-03T03:25:34.622Z,102655.28
2022-12-03T03:30:38.671Z,102652.63
2022-12-03T03:35:40.739Z,102649.94
2022-12-03T03:40:42.539Z,102651.81
2022-12-03T03:45:44.482Z,102649.28
2022-12-03T03:50:47.106Z,102637.03
2022-12-03T03:55:49.075Z,102637.00
2022-12-03T04:00:51.771Z,102634.53
2022-12-03T04:05:53.406Z,102631.09
2022-12-03T04:11:13.454Z,102638.72
2022-12-03T04:16:14.962Z,102636.44
2022-12-03T04:21:40.471Z,102634.66
2022-12-03T04:27:00.487Z,102624.28
2022-12-03T04:32:20.823Z,102625.13
2022-12-03T04:37:22.391Z,102618.91
2022-12-03T04:42:23.987Z,102619.66
2022-12-03T04:47:25.517Z,102618.69
2022-12-03T04:52:26.972Z,102618.69
2022-12-03T04:57:28.459Z,102622.09
2022-12-03T05:02:29.956Z,102622.88
2022-12-03T05:07:31.551Z,102624.50
2022-12-03T05:12:33.144Z,102613.69
2022-12-03T05:17:34.806Z,102615.91
2022-12-03T05:22:36.256Z,102615.69
2022-12-03T05:27:37.787Z,102622.25
2022-12-03T05:32:39.318Z,102616.13
2022-12-03T05:37:40.808Z,102612.53
2022-12-03T05:42:54.213Z,102614.97
2022-12-03T05:47:56.904Z,102612.25
2022-12-03T05:52:58.796Z,102606.94
2022-12-03T05:58:00.461Z,102605.34
2022-12-03T06:03:02.854Z,102607.19
2022-12-03T06:08:04.655Z,102602.63
2022-12-03T06:13:06.170Z,102599.25
2022-12-03T06:18:07.635Z,102605.09
2022-12-03T06:23:09.238Z,102608.31
2022-12-03T06:28:10.780Z,102611.63
2022-12-03T06:33:12.226Z,102610.66
2022-12-03T06:38:13.721Z,102602.75
2022-12-03T06:43:15.380Z,102603.66
2022-12-03T06:48:16.937Z,102600.78
2022-12-03T06:53:18.592Z,102607.78
2022-12-03T06:58:21.265Z,102601.63
2022-12-03T07:03:22.854Z,102605.19
2022-12-03T07:08:24.398Z,102595.59
2022-12-03T07:13:25.853Z,102591.16
2022-12-03T07:18:27.285Z,102592.03
2022-12-03T07:23:28.729Z,102590.09
2022-12-03T07:28:30.204Z,102582.44
2022-12-03T07:33:31.747Z,102584.91
2022-12-03T07:38:33.205Z,102588.34
2022-12-03T07:43:34.857Z,102586.66
2022-12-03T07:48:36.536Z,102574.66
2022-12-03T07:53:38.309Z,102573.00
2022-12-03T07:58:39.979Z,102579.09
2022-12-03T08:03:42.946Z,102573.09
2022-12-03T08:08:44.525Z,102559.34
2022-12-03T08:13:46.087Z,102562.78
2022-12-03T08:18:49.520Z,102561.16
2022-12-03T08:23:51.010Z,102566.41
2022-12-03T08:28:53.383Z,102568.03
2022-12-03T08:34:06.591Z,102559.34
2022-12-03T08:39:29.278Z,102569.88
2022-12-03T08:44:38.418Z,102569.03
2022-12-03T08:49:40.935Z,102565.66
2022-12-03T08:54:43.697Z,102559.59
2022-12-03T08:59:45.857Z,102544.09
2022-12-03T09:04:47.511Z,102549.53
2022-12-03T09:09:49.015Z,102552.22
2022-12-03T09:14:50.467Z,102549.63
2022-12-03T09:19:52.117Z,102545.19
2022-12-03T09:25:08.919Z,102548.69
2022-12-03T09:30:10.859Z,102541.94
2022-12-03T09:35:12.680Z,102544.38
2022-12-03T09:40:14.452Z,102543.28
2022-12-03T09:45:16.605Z,102545.94
2022-12-03T09:50:24.458Z,102550.13
2022-12-03T09:55:27.800Z,102548.41
2022-12-03T10:00:30.601Z,102538.00
2022-12-03T10:05:33.457Z,102535.50
2022-12-03T10:10:35.675Z,102540.66
2022-12-03T10:15:37.203Z,102509.41
2022-12-03T10:20:38.716Z,102519.91
2022-12-03T10:25:55.594Z,102512.25
2022-12-03T10:30:58.471Z,102511.38
2022-12-03T10:36:23.896Z,102503.81
2022-12-03T10:41:28.465Z,102501.13
2022-12-03T10:46:30.054Z,102491.75
2022-12-03T10:51:31.899Z,102483.22
2022-12-03T10:56:33.345Z,102485.88
2022-12-03T11:01:34.862Z,102490.28
2022-12-03T11:06:36.494Z,102476.56
2022-12-03T11:11:38.041Z,102464.66
2022-12-03T11:16:39.484Z,102469.88
2022-12-03T11:22:07.129Z,102454.47
2022-12-03T11:27:18.952Z,102442.44
2022-12-03T11:32:38.814Z,102436.53
2022-12-03T11:37:40.787Z,102427.91
2022-12-03T11:42:43.147Z,102422.66
2022-12-03T11:47:46.001Z,102426.94
2022-12-03T11:52:52.885Z,102422.47
2022-12-03T11:58:00.649Z,102414.63
2022-12-03T12:03:02.228Z,102407.78
2022-12-03T12:08:04.190Z,102402.56
2022-12-03T12:13:06.985Z,102393.16
2022-12-03T12:18:39.671Z,102383.44
2022-12-03T12:23:41.178Z,102381.84
2022-12-03T12:28:42.666Z,102375.91
2022-12-03T12:33:44.173Z,102373.28
2022-12-03T12:38:45.691Z,102368.91
2022-12-03T12:43:47.150Z,102369.66
2022-12-03T12:48:48.645Z,102359.34
2022-12-03T12:53:50.206Z,102349.44
2022-12-03T12:58:52.107Z,102342.34
2022-12-03T13:03:54.337Z,102347.59
2022-12-03T13:08:56.893Z,102334.22
2022-12-03T13:13:58.386Z,102333.41
2022-12-03T13:19:01.161Z,102329.97
2022-12-03T13:24:19.946Z,102324.00
2022-12-03T13:29:25.135Z,102317.69
2022-12-03T13:34:31.568Z,102311.84
2022-12-03T13:39:36.648Z,102306.25
2022-12-03T13:44:45.421Z,102303.88
2022-12-03T13:49:53.943Z,102312.63
2022-12-03T13:54:56.636Z,102302.53
2022-12-03T13:59:58.094Z,102300.03
2022-12-03T14:05:00.731Z,102305.31
2022-12-03T14:10:02.582Z,102307.34
2022-12-03T14:15:06.205Z,102313.47
2022-12-03T14:20:08.259Z,102307.97
2022-12-03T14:25:10.703Z,102314.75
2022-12-03T14:30:12.614Z,102314.63
2022-12-03T14:35:14.167Z,102317.84
2022-12-03T14:40:21.212Z,102311.75
2022-12-03T14:45:24.220Z,102307.47
2022-12-03T14:50:25.753Z,102304.81
2022-12-03T14:55:27.458Z,102305.63
2022-12-03T15:00:28.931Z,102319.19
2022-12-03T15:05:30.416Z,102317.59
2022-12-03T15:10:31.945Z,102320.06
2022-12-03T15:15:33.457Z,102319.25
2022-12-03T15:20:35.611Z,102334.53
2022-12-03T15:25:37.101Z,102286.50
2022-12-03T15:30:38.671Z,102332.81
2022-12-03T15:35:41.565Z,102336.97
2022-12-03T15:40:43.450Z,102330.84
2022-12-03T15:45:45.163Z,102319.63
2022-12-03T15:50:46.664Z,102325.44
2022-12-03T15:55:48.133Z,102292.38
2022-12-03T16:00:49.645Z,102321.13
2022-12-03T16:05:51.161Z,102314.97
2022-12-03T16:10:52.925Z,102304.44
2022-12-03T16:15:54.465Z,102311.56
2022-12-03T16:20:56.149Z,102309.72
2022-12-03T16:25:57.627Z,102319.28
2022-12-03T16:30:59.131Z,102320.97
2022-12-03T16:36:00.629Z,102322.69
2022-12-03T16:41:02.161Z,102327.13
2022-12-03T16:46:21.016Z,102324.47
2022-12-03T16:51:22.951Z,102317.69
2022-12-03T16:56:24.449Z,102306.75
2022-12-03T17:01:27.028Z,102308.44
2022-12-03T17:06:28.695Z,102299.75
2022-12-03T17:11:30.213Z,102297.91
2022-12-03T17:16:31.668Z,102299.63
2022-12-03T17:21:35.076Z,102291.78
2022-12-03T17:26:36.805Z,102282.44
2022-12-03T17:31:42.176Z,102282.34
2022-12-03T17:36:44.313Z,102280.53
2022-12-03T17:41:45.765Z,102267.66
2022-12-03T17:46:47.268Z,102288.41
2022-12-03T17:51:48.872Z,102277.06
2022-12-03T17:56:50.367Z,102273.41
2022-12-03T18:01:52.041Z,102284.44
2022-12-03T18:06:57.525Z,102271.75
2022-12-03T18:12:02.312Z,102271.56
2022-12-03T18:17:03.906Z,102267.41
2022-12-03T18:22:05.575Z,102274.72
2022-12-03T18:27:07.195Z,102262.94
2022-12-03T18:32:27.246Z,102259.50
2022-12-03T18:37:31.775Z,102251.81
2022-12-03T18:42:33.341Z,102266.50
2022-12-03T18:47:34.898Z,102257.06
2022-12-03T18:52:36.817Z,102249.44
2022-12-03T18:57:38.290Z,102243.50
2022-12-03T19:03:01.928Z,102251.22
2022-12-03T19:08:01.953Z,102247.84
2022-12-03T19:13:03.906Z,102247.00
2022-12-03T19:18:07.420Z,102243.44
2022-12-03T19:23:09.841Z,102248.81
2022-12-03T19:28:11.394Z,102248.06
2022-12-03T19:33:17.925Z,102255.06
2022-12-03T19:38:19.823Z,102251.56
2022-12-03T19:43:21.274Z,102262.97
2022-12-03T19:48:23.169Z,102268.06
2022-12-03T19:53:26.226Z,102262.19
2022-12-03T19:58:27.723Z,102246.84
2022-12-03T20:03:29.124Z,102254.75
2022-12-03T20:08:30.646Z,102253.09
2022-12-03T20:13:36.420Z,102250.44
2022-12-03T20:18:42.226Z,102247.97
2022-12-03T20:23:44.005Z,102241.72
2022-12-03T20:28:47.869Z,102251.34
2022-12-03T20:33:52.512Z,102250.56
2022-12-03T20:38:59.842Z,102255.84
2022-12-03T20:44:02.343Z,102253.25
2022-12-03T20:49:05.497Z,102244.44
2022-12-03T20:54:07.004Z,102244.41
2022-12-03T20:59:12.543Z,102246.19
2022-12-03T21:04:14.453Z,102245.34
2022-12-03T21:09:16.005Z,102233.31
2022-12-03T21:14:17.500Z,102250.44
2022-12-03T21:19:20.319Z,102238.38
2022-12-03T21:24:21.933Z,102230.63
2022-12-03T21:29:24.047Z,102244.16
2022-12-03T21:34:25.576Z,102246.94
2022-12-03T21:39:27.074Z,102247.50
2022-12-03T21:44:28.591Z,102257.81
2022-12-03T21:49:30.020Z,102260.06
2022-12-03T21:54:31.569Z,102257.31
2022-12-03T21:59:33.363Z,102267.28
2022-12-03T22:04:35.000Z,102279.25
2022-12-03T22:09:36.763Z,102232.63
2022-12-03T22:14:38.216Z,102270.88
2022-12-03T22:19:39.920Z,102283.44
2022-12-03T22:24:41.584Z,102284.81
2022-12-03T22:29:43.061Z,102284.47
2022-12-03T22:34:44.627Z,102283.16
2022-12-03T22:39:46.136Z,102287.69
2022-12-03T22:44:47.578Z,102282.78
2022-12-03T22:49:49.154Z,102286.88
2022-12-03T22:54:50.632Z,102282.38
2022-12-03T22:59:52.271Z,102297.91
2022-12-03T23:04:55.648Z,102289.13
2022-12-03T23:09:57.324Z,102288.31
2022-12-03T23:14:59.015Z,102288.91
2022-12-03T23:20:00.573Z,102291.47
2022-12-03T23:25:02.003Z,102287.94
2022-12-03T23:30:04.191Z,102290.28
2022-12-03T23:35:06.318Z,102290.28
2022-12-03T23:40:08.112Z,102284.22
2022-12-03T23:45:09.895Z,102273.06
2022-12-03T23:50:11.844Z,102280.00
2022-12-03T23:55:13.415Z,102288.53
